WetterOnline ( https://www.wetteronline.de )

Wetter aktuell Gefrees

Aktuelles Wetter: Wunsiedel-Schönbrunn (622m)

6-stündlich | Neueste Meldungen
Ortszeit Temperatur Wetter
Di, 11.05. 8:00 14.8° C wolkig
Di, 11.05. 2:00 14.8° C bedeckt
Mo, 10.05. 20:00 21.0° C bedeckt
Mo, 10.05. 14:00 23.9° C leicht bewölkt
Mo, 10.05. 8:00 11.3° C wolkig
Mo, 10.05. 2:00 13.8° C wolkig
So, 09.05. 20:00 21.3° C wolkig
So, 09.05. 14:00 22.2° C wolkenlos
Ortszeit Temperatur Wetter
Di, 11.05. 9:00 15.9° C wolkenlos
Di, 11.05. 8:50 15.9° C wolkenlos
Di, 11.05. 8:40 15.4° C fast wolkenlos
Di, 11.05. 8:30 14.6° C leicht bewölkt
Di, 11.05. 8:20 14.6° C leicht bewölkt
Di, 11.05. 8:10 14.9° C wolkig
Di, 11.05. 8:00 14.8° C wolkig
Di, 11.05. 7:30 14.1° C wolkig
Di, 11.05. 7:00 13.3° C bewölkt
Di, 11.05. 6:30 13.3° C bedeckt
Di, 11.05. 6:00 13.5° C bedeckt
Ortszeit Relative Feuchte Sichtweite
Di, 11.05. 8:00 71% 35 km
Di, 11.05. 2:00 77% 65 km
Mo, 10.05. 20:00 51% 55 km
Mo, 10.05. 14:00 36% 50 km
Mo, 10.05. 8:00 76% 60 km
Mo, 10.05. 2:00 65% >70 km
So, 09.05. 20:00 40% >70 km
So, 09.05. 14:00 42% 60 km
Ortszeit Relative Feuchte Sichtweite
Di, 11.05. 9:00 70% 50 km
Di, 11.05. 8:50 70% -
Di, 11.05. 8:40 71% -
Di, 11.05. 8:30 74% 65 km
Di, 11.05. 8:20 74% -
Di, 11.05. 8:10 73% -
Di, 11.05. 8:00 71% 35 km
Di, 11.05. 7:30 75% 45 km
Di, 11.05. 7:00 76% 45 km
Di, 11.05. 6:30 76% 55 km
Di, 11.05. 6:00 77% >70 km
Ortszeit Niederschlagsmenge Niederschlagsart
Di, 11.05. 8:00 0.0 l/m2 in 12 Std. -
Di, 11.05. 2:00 0.0 l/m2 in 6 Std. -
Mo, 10.05. 20:00 0.0 l/m2 in 12 Std. -
Mo, 10.05. 14:00 0.0 l/m2 in 6 Std. -
Mo, 10.05. 8:00 0.0 l/m2 in 12 Std. -
Mo, 10.05. 2:00 0.0 l/m2 in 6 Std. -
So, 09.05. 20:00 0.0 l/m2 in 12 Std. -
So, 09.05. 14:00 0.0 l/m2 in 6 Std. -
Ortszeit Niederschlagsmenge Niederschlagsart
Di, 11.05. 9:00 0.0 l/m2 in 1 Std. -
Di, 11.05. 8:50 keine Meldung -
Di, 11.05. 8:40 keine Meldung -
Di, 11.05. 8:30 0.0 l/m2 in 1 Std. -
Di, 11.05. 8:20 keine Meldung -
Di, 11.05. 8:10 keine Meldung -
Di, 11.05. 8:00 0.0 l/m2 in 1 Std. -
Di, 11.05. 7:30 0.0 l/m2 in 1 Std. -
Di, 11.05. 7:00 0.0 l/m2 in 1 Std. -
Di, 11.05. 6:30 0.0 l/m2 in 1 Std. -
Di, 11.05. 6:00 0.0 l/m2 in 1 Std. -
Ortszeit Stärke Spitze Richtung
km/h Bft. km/h Grad Sektor
Di, 11.05. 8:00 4 1 14 360° N
Di, 11.05. 2:00 7 2 32 30° NO
Mo, 10.05. 20:00 6 1 39 40° NO
Mo, 10.05. 14:00 18 3 36 200° S
Mo, 10.05. 8:00 4 1 14 50° NO
Mo, 10.05. 2:00 11 2 22 100° O
So, 09.05. 20:00 9 2 46 190° S
So, 09.05. 14:00 14 3 40 190° S
Ortszeit Stärke Spitze Richtung
km/h Bft. km/h Grad Sektor
Di, 11.05. 9:00 6 1 9 20° N
Di, 11.05. 8:50 6 1 - 20° N
Di, 11.05. 8:40 7 2 - 20° N
Di, 11.05. 8:30 6 1 7 20° N
Di, 11.05. 8:20 6 1 - 20° N
Di, 11.05. 8:10 4 1 - 60° NO
Di, 11.05. 8:00 4 1 11 360° N
Di, 11.05. 7:30 4 1 11 350° N
Di, 11.05. 7:00 4 1 11 350° N
Di, 11.05. 6:30 7 2 11 270° W
Di, 11.05. 6:00 4 1 11 280° W
Ortszeit Untergrenze Bedeckung Gattung
total tief tief mittel hoch
Di, 11.05. 8:00 7800 m 8/8 0/8 - - -
Di, 11.05. 2:00 3300 m 8/8 8/8 - - -
Mo, 10.05. 20:00 3900 m 8/8 8/8 - - -
Mo, 10.05. 14:00 8400 m 5/8 0/8 - - -
Mo, 10.05. 8:00 6900 m 6/8 6/8 - - -
Mo, 10.05. 2:00 8100 m 7/8 0/8 - - -
So, 09.05. 20:00 9000 m 8/8 0/8 - - -
So, 09.05. 14:00 9000 m 0/8 0/8 - - -
Ortszeit Bedeckungsgrad in Achtel und Wolkenuntergrenze
Di, 11.05. 9:00 keine Wolken
Di, 11.05. 8:50 keine Wolken
Di, 11.05. 8:40 1(8700m)
Di, 11.05. 8:30 5(8100m) 5(8700m)
Di, 11.05. 8:20 5(8100m) 5(8700m)
Di, 11.05. 8:10 7(8100m) 8(8700m)
Di, 11.05. 8:00 5(7800m) 8(8700m) 8(8700m)
Di, 11.05. 7:30 8(7200m) 8(8100m) 8(8700m)
Di, 11.05. 7:00 4(6000m) 8(7200m) 8(7200m)
Di, 11.05. 6:30 7(5100m) 8(5700m) 8(7200m)
Di, 11.05. 6:00 3(3600m) 8(5100m)
Ortszeit Luftdruck NN (hPa) Tendenz (hPa in 3 Std.)
Di, 11.05. 8:00 1006 - 0,1
Di, 11.05. 2:00 1007 - 1,8
Mo, 10.05. 20:00 1007 + 0,1
Mo, 10.05. 14:00 1006 + 0,2
Mo, 10.05. 8:00 1009 + 0,4
Mo, 10.05. 2:00 1008 - 0,5
So, 09.05. 20:00 1007 - 1,2
So, 09.05. 14:00 1010 - 1,4
Ortszeit Luftdruck NN (hPa) Tendenz (hPa in 3 Std.)
Di, 11.05. 9:00 1006 + 0,2
Di, 11.05. 8:50 1006 keine Meldung
Di, 11.05. 8:40 1006 keine Meldung
Di, 11.05. 8:30 1006 + 0,3
Di, 11.05. 8:20 1006 keine Meldung
Di, 11.05. 8:10 1006 keine Meldung
Di, 11.05. 8:00 1006 - 0,1
Di, 11.05. 7:30 1006 - 0,4
Di, 11.05. 7:00 1006 - 0,4
Di, 11.05. 6:30 1006 - 0,7
Di, 11.05. 6:00 1006 - 0,9
Ortszeit Schneehöhe (cm)
Di, 11.05. 8:00 0
Di, 11.05. 2:00 0
Mo, 10.05. 20:00 0
Mo, 10.05. 14:00 0
Mo, 10.05. 8:00 0
Mo, 10.05. 2:00 0
So, 09.05. 20:00 0
So, 09.05. 14:00 0
Ortszeit Schneehöhe (cm)
Di, 11.05. 9:00 0
Di, 11.05. 8:50 0
Di, 11.05. 8:40 0
Di, 11.05. 8:30 0
Di, 11.05. 8:20 0
Di, 11.05. 8:10 0
Di, 11.05. 8:00 0
Di, 11.05. 7:30 0
Di, 11.05. 7:00 0
Di, 11.05. 6:30 0
Di, 11.05. 6:00 0
Link zu dieser Seite / Seite empfehlen

Das Wetter in ...